createdAt,value
2019-05-02T00:01:24.889Z,0.00
2019-05-02T00:03:25.135Z,0.62
2019-05-02T00:05:27.342Z,1.03
2019-05-02T00:07:25.466Z,0.58
2019-05-02T00:09:24.868Z,0.42
2019-05-02T00:11:25.258Z,0.31
2019-05-02T00:13:24.990Z,0.09
2019-05-02T00:15:24.869Z,0.47
2019-05-02T00:17:25.693Z,0.35
2019-05-02T00:19:24.924Z,0.17
2019-05-02T00:21:25.139Z,0.99
2019-05-02T00:23:27.920Z,0.35
2019-05-02T00:25:24.905Z,0.00
2019-05-02T00:27:24.972Z,0.33
2019-05-02T00:29:25.139Z,0.93
2019-05-02T00:31:24.954Z,0.04
2019-05-02T00:33:29.150Z,0.09
2019-05-02T00:35:24.993Z,0.06
2019-05-02T00:37:26.636Z,0.01
2019-05-02T00:39:25.141Z,0.01
2019-05-02T00:41:25.162Z,0.25
2019-05-02T00:43:29.073Z,0.11
2019-05-02T00:45:25.919Z,0.04
2019-05-02T00:47:25.196Z,0.11
2019-05-02T00:49:24.932Z,0.09
2019-05-02T00:51:26.911Z,0.00
2019-05-02T00:53:25.232Z,0.01
2019-05-02T00:55:28.979Z,0.00
2019-05-02T00:57:25.053Z,0.00
2019-05-02T00:59:25.172Z,0.39
2019-05-02T01:01:29.678Z,0.17
2019-05-02T01:03:25.288Z,0.56
2019-05-02T01:05:25.163Z,0.44
2019-05-02T01:07:25.696Z,0.97
2019-05-02T01:09:25.217Z,0.01
2019-05-02T01:11:28.311Z,0.11
2019-05-02T01:13:25.345Z,0.13
2019-05-02T01:15:25.052Z,0.06
2019-05-02T01:17:26.107Z,0.00
2019-05-02T01:19:25.277Z,0.00
2019-05-02T01:21:25.091Z,0.00
2019-05-02T01:23:27.474Z,0.00
2019-05-02T01:25:25.208Z,0.06
2019-05-02T01:27:25.039Z,0.02
2019-05-02T01:29:29.726Z,0.21
2019-05-02T01:31:25.044Z,0.18
2019-05-02T01:33:25.167Z,0.00
2019-05-02T01:35:27.006Z,0.10
2019-05-02T01:37:25.284Z,0.01
2019-05-02T01:39:25.303Z,0.01
2019-05-02T01:41:29.242Z,0.03
2019-05-02T01:43:25.634Z,0.37
2019-05-02T01:45:25.135Z,0.03
2019-05-02T01:47:29.037Z,0.00
2019-05-02T01:49:25.166Z,0.00
2019-05-02T01:51:24.956Z,0.00
2019-05-02T01:53:29.242Z,0.19
2019-05-02T01:55:25.080Z,0.00
2019-05-02T01:57:25.093Z,0.00
2019-05-02T01:59:29.090Z,0.00
2019-05-02T02:01:25.426Z,0.00
2019-05-02T02:03:25.239Z,0.00
2019-05-02T02:05:27.682Z,0.00
2019-05-02T02:07:25.018Z,0.36
2019-05-02T02:09:25.271Z,0.00
2019-05-02T02:11:28.442Z,0.00
2019-05-02T02:13:24.981Z,0.00
2019-05-02T02:15:28.938Z,0.09
2019-05-02T02:17:24.974Z,0.11
2019-05-02T02:19:25.227Z,0.58
2019-05-02T02:21:26.161Z,0.99
2019-05-02T02:23:25.255Z,1.20
2019-05-02T02:25:25.194Z,0.37
2019-05-02T02:27:25.842Z,0.90
2019-05-02T02:29:25.281Z,0.26
2019-05-02T02:31:25.293Z,0.18
2019-05-02T02:33:25.194Z,0.13
2019-05-02T02:35:25.324Z,0.10
2019-05-02T02:37:25.284Z,0.19
2019-05-02T02:39:25.522Z,0.12
2019-05-02T02:41:24.950Z,0.00
2019-05-02T02:43:34.390Z,0.00
2019-05-02T02:45:25.281Z,0.01
2019-05-02T02:47:25.245Z,0.02
2019-05-02T02:49:25.033Z,0.13
2019-05-02T02:51:26.381Z,0.06
2019-05-02T02:53:25.750Z,0.30
2019-05-02T02:55:25.336Z,0.51
2019-05-02T02:57:28.245Z,0.21
2019-05-02T02:59:26.101Z,0.41
2019-05-02T03:01:29.005Z,0.00
2019-05-02T03:03:28.146Z,0.04
2019-05-02T03:05:25.945Z,0.01
2019-05-02T03:07:28.497Z,0.16
2019-05-02T03:09:26.504Z,0.28
2019-05-02T03:11:25.729Z,0.49
2019-05-02T03:13:24.999Z,0.04
2019-05-02T03:15:28.020Z,0.00
2019-05-02T03:17:28.362Z,0.00
2019-05-02T03:19:25.267Z,0.00
2019-05-02T03:21:25.290Z,0.03
2019-05-02T03:23:25.213Z,0.00
2019-05-02T03:25:48.245Z,0.00
2019-05-02T03:27:29.839Z,0.00
2019-05-02T03:29:25.012Z,0.02
2019-05-02T03:31:30.551Z,0.01
2019-05-02T03:33:25.056Z,0.25
2019-05-02T03:35:40.293Z,0.28
2019-05-02T03:37:25.052Z,0.00
2019-05-02T03:39:25.285Z,0.20
2019-05-02T03:41:25.256Z,0.00
2019-05-02T03:43:27.555Z,0.16
2019-05-02T03:45:25.245Z,0.27
2019-05-02T03:47:25.375Z,0.24
2019-05-02T03:49:25.150Z,0.44
2019-05-02T03:51:25.601Z,0.04
2019-05-02T03:53:27.458Z,0.10
2019-05-02T03:55:30.710Z,0.51
2019-05-02T03:57:32.877Z,0.01
2019-05-02T03:59:37.721Z,0.27
2019-05-02T04:01:25.012Z,0.41
2019-05-02T04:03:25.113Z,0.05
2019-05-02T04:05:25.671Z,0.48
2019-05-02T04:07:25.455Z,0.00
2019-05-02T04:09:25.258Z,0.51
2019-05-02T04:11:25.208Z,0.83
2019-05-02T04:13:30.166Z,0.39
2019-05-02T04:15:28.678Z,0.04
2019-05-02T04:17:29.126Z,0.02
2019-05-02T04:19:28.686Z,0.24
2019-05-02T04:21:26.576Z,0.39
2019-05-02T04:23:27.648Z,0.56
2019-05-02T04:25:27.932Z,0.00
2019-05-02T04:27:27.962Z,0.18
2019-05-02T04:29:31.080Z,0.07
2019-05-02T04:33:29.055Z,0.08
2019-05-02T04:35:28.841Z,0.01
2019-05-02T04:37:24.960Z,0.00
2019-05-02T04:39:28.437Z,0.00
2019-05-02T04:41:29.033Z,0.00
2019-05-02T04:43:25.026Z,0.00
2019-05-02T04:45:29.713Z,0.00
2019-05-02T04:47:25.225Z,0.00
2019-05-02T04:49:29.984Z,0.00
2019-05-02T04:51:28.674Z,0.00
2019-05-02T04:53:36.907Z,0.00
2019-05-02T04:55:30.179Z,0.00
2019-05-02T04:57:29.776Z,0.00
2019-05-02T04:59:28.483Z,0.00
2019-05-02T05:01:33.018Z,0.00
2019-05-02T05:03:25.268Z,0.00
2019-05-02T05:05:31.040Z,0.00
2019-05-02T05:07:24.949Z,0.00
2019-05-02T05:09:27.740Z,0.00
2019-05-02T05:11:27.425Z,0.00
2019-05-02T05:13:26.572Z,0.00
2019-05-02T05:15:37.064Z,0.00
2019-05-02T05:17:30.381Z,0.00
2019-05-02T05:19:31.057Z,0.00
2019-05-02T05:21:26.308Z,0.00
2019-05-02T05:23:24.973Z,0.00
2019-05-02T05:25:24.977Z,0.00
2019-05-02T05:27:25.000Z,0.00
2019-05-02T05:29:26.953Z,0.00
2019-05-02T05:31:26.413Z,0.00
2019-05-02T05:33:28.480Z,0.00
2019-05-02T05:35:25.339Z,0.19
2019-05-02T05:37:27.309Z,0.29
2019-05-02T05:39:25.275Z,0.40
2019-05-02T05:41:27.550Z,0.38
2019-05-02T05:43:27.175Z,0.43
2019-05-02T05:45:27.768Z,0.21
2019-05-02T05:47:25.125Z,0.48
2019-05-02T05:49:25.028Z,0.13
2019-05-02T05:51:25.218Z,0.60
2019-05-02T05:53:25.367Z,0.13
2019-05-02T05:55:25.149Z,0.50
2019-05-02T05:57:25.303Z,0.66
2019-05-02T05:59:28.093Z,0.34
2019-05-02T06:01:25.982Z,0.25
2019-05-02T06:03:25.419Z,0.10
2019-05-02T06:05:27.140Z,0.11
2019-05-02T06:07:25.439Z,0.38
2019-05-02T06:09:26.268Z,0.00
2019-05-02T06:11:25.468Z,0.12
2019-05-02T06:13:25.482Z,0.00
2019-05-02T06:15:25.192Z,0.00
2019-05-02T06:17:28.519Z,0.00
2019-05-02T06:19:25.320Z,0.00
2019-05-02T06:21:25.420Z,0.47
2019-05-02T06:23:25.210Z,0.22
2019-05-02T06:25:34.020Z,0.75
2019-05-02T06:27:27.787Z,0.81
2019-05-02T06:29:25.482Z,0.89
2019-05-02T06:31:25.281Z,0.65
2019-05-02T06:33:25.862Z,1.16
2019-05-02T06:35:25.302Z,0.84
2019-05-02T06:37:25.319Z,0.87
2019-05-02T06:39:27.208Z,1.47
2019-05-02T06:41:25.338Z,0.17
2019-05-02T06:43:25.146Z,0.00
2019-05-02T06:45:25.084Z,0.73
2019-05-02T06:47:25.353Z,0.80
2019-05-02T06:49:26.053Z,0.29
2019-05-02T06:51:25.177Z,0.86
2019-05-02T06:53:25.410Z,1.27
2019-05-02T06:55:28.190Z,1.07
2019-05-02T06:57:25.857Z,0.65
2019-05-02T06:59:25.407Z,1.13
2019-05-02T07:01:25.334Z,1.50
2019-05-02T07:03:27.631Z,1.52
2019-05-02T07:05:27.172Z,0.94
2019-05-02T07:07:30.656Z,0.94
2019-05-02T07:09:39.496Z,1.34
2019-05-02T07:11:25.513Z,1.19
2019-05-02T07:13:25.447Z,1.45
2019-05-02T07:15:25.522Z,1.63
2019-05-02T07:17:26.510Z,1.45
2019-05-02T07:19:27.319Z,0.86
2019-05-02T07:21:25.365Z,1.78
2019-05-02T07:23:25.378Z,1.10
2019-05-02T07:25:25.597Z,1.50
2019-05-02T07:27:28.262Z,1.69
2019-05-02T07:29:25.430Z,1.23
2019-05-02T07:31:25.530Z,0.63
2019-05-02T07:33:25.272Z,0.80
2019-05-02T07:35:25.912Z,0.58
2019-05-02T07:37:25.319Z,0.87
2019-05-02T07:39:25.359Z,0.28
2019-05-02T07:41:29.012Z,0.68
2019-05-02T07:43:25.610Z,0.55
2019-05-02T07:45:25.577Z,0.56
2019-05-02T07:47:28.637Z,0.60
2019-05-02T07:49:26.529Z,0.11
2019-05-02T07:51:25.381Z,0.67
2019-05-02T07:53:25.455Z,0.73
2019-05-02T07:55:25.476Z,0.47
2019-05-02T07:57:30.346Z,0.63
2019-05-02T07:59:25.493Z,1.19
2019-05-02T08:01:25.222Z,1.19
2019-05-02T08:03:29.443Z,1.13
2019-05-02T08:05:25.734Z,1.01
2019-05-02T08:07:29.973Z,2.09
2019-05-02T08:09:25.348Z,0.68
2019-05-02T08:11:25.263Z,0.80
2019-05-02T08:13:25.409Z,1.56
2019-05-02T08:15:25.388Z,0.58
2019-05-02T08:17:25.491Z,1.48
2019-05-02T08:19:25.282Z,1.85
2019-05-02T08:21:27.264Z,0.85
2019-05-02T08:23:26.376Z,1.19
2019-05-02T08:25:25.558Z,1.48
2019-05-02T08:27:29.167Z,1.98
2019-05-02T08:29:28.896Z,1.22
2019-05-02T08:31:25.370Z,0.60
2019-05-02T08:33:29.120Z,1.51
2019-05-02T08:35:28.111Z,1.93
2019-05-02T08:37:25.303Z,2.40
2019-05-02T08:39:33.098Z,2.11
2019-05-02T08:41:25.443Z,0.75
2019-05-02T08:43:25.751Z,1.65
2019-05-02T08:45:25.322Z,1.53
2019-05-02T08:47:28.694Z,2.11
2019-05-02T08:49:25.583Z,1.54
2019-05-02T08:51:25.389Z,1.01
2019-05-02T08:53:25.358Z,0.95
2019-05-02T08:55:25.523Z,0.71
2019-05-02T08:57:25.658Z,1.67
2019-05-02T08:59:26.186Z,0.74
2019-05-02T09:01:34.845Z,1.20
2019-05-02T09:03:25.666Z,1.45
2019-05-02T09:05:25.566Z,0.87
2019-05-02T09:07:25.454Z,1.60
2019-05-02T09:09:27.961Z,0.49
2019-05-02T09:11:25.404Z,0.86
2019-05-02T09:13:29.149Z,0.64
2019-05-02T09:15:25.457Z,0.90
2019-05-02T09:17:35.491Z,0.56
2019-05-02T09:19:26.534Z,0.65
2019-05-02T09:21:26.757Z,0.33
2019-05-02T09:23:27.589Z,1.69
2019-05-02T09:25:25.703Z,0.90
2019-05-02T09:27:25.535Z,0.63
2019-05-02T09:29:25.606Z,1.75
2019-05-02T09:31:25.423Z,0.99
2019-05-02T09:33:25.584Z,0.75
2019-05-02T09:35:25.401Z,0.38
2019-05-02T09:37:25.666Z,1.18
2019-05-02T09:39:27.406Z,1.36
2019-05-02T09:41:26.855Z,1.53
2019-05-02T09:43:29.242Z,1.35
2019-05-02T09:45:27.876Z,1.46
2019-05-02T09:47:27.299Z,0.79
2019-05-02T09:49:25.639Z,1.60
2019-05-02T09:51:25.667Z,1.54
2019-05-02T09:53:25.762Z,1.09
2019-05-02T09:55:25.770Z,1.36
2019-05-02T09:57:25.455Z,0.92
2019-05-02T09:59:30.090Z,1.46
2019-05-02T10:01:25.323Z,1.82
2019-05-02T10:03:25.505Z,0.45
2019-05-02T10:05:25.721Z,1.87
2019-05-02T10:07:25.660Z,2.22
2019-05-02T10:09:27.113Z,2.70
2019-05-02T10:11:26.267Z,1.41
2019-05-02T10:13:25.520Z,1.47
2019-05-02T10:15:25.587Z,0.71
2019-05-02T10:17:25.708Z,1.74
2019-05-02T10:19:26.101Z,1.38
2019-05-02T10:21:25.484Z,0.82
2019-05-02T10:23:25.634Z,0.82
2019-05-02T10:25:25.392Z,2.50
2019-05-02T10:27:25.587Z,1.83
2019-05-02T10:29:28.386Z,2.08
2019-05-02T10:31:27.630Z,0.60
2019-05-02T10:33:28.001Z,0.80
2019-05-02T10:35:28.057Z,1.29
2019-05-02T10:37:25.614Z,2.40
2019-05-02T10:39:28.438Z,1.48
2019-05-02T10:41:25.638Z,1.50
2019-05-02T10:43:25.570Z,1.33
2019-05-02T10:45:25.580Z,0.37
2019-05-02T10:47:25.666Z,0.63
2019-05-02T10:49:25.772Z,0.34
2019-05-02T10:51:26.316Z,0.26
2019-05-02T10:53:25.704Z,0.00
2019-05-02T10:55:25.734Z,1.09
2019-05-02T10:57:25.522Z,1.44
2019-05-02T10:59:25.602Z,0.69
2019-05-02T11:01:25.600Z,2.28
2019-05-02T11:03:25.598Z,2.01
2019-05-02T11:05:26.586Z,1.51
2019-05-02T11:07:26.340Z,1.10
2019-05-02T11:09:26.353Z,0.77
2019-05-02T11:11:25.602Z,1.03
2019-05-02T11:13:25.821Z,2.31
2019-05-02T11:15:26.854Z,1.08
2019-05-02T11:17:25.846Z,1.09
2019-05-02T11:19:25.651Z,0.56
2019-05-02T11:21:25.459Z,0.72
2019-05-02T11:23:25.821Z,0.79
2019-05-02T11:25:25.528Z,0.81
2019-05-02T11:27:25.589Z,1.23
2019-05-02T11:29:25.816Z,1.42
2019-05-02T11:31:25.928Z,0.93
2019-05-02T11:33:25.729Z,1.69
2019-05-02T11:35:25.740Z,2.51
2019-05-02T11:37:25.902Z,0.58
2019-05-02T11:39:33.649Z,0.49
2019-05-02T11:41:25.734Z,0.87
2019-05-02T11:43:25.793Z,1.22
2019-05-02T11:45:25.812Z,1.31
2019-05-02T11:47:26.722Z,1.49
2019-05-02T11:49:25.827Z,0.92
2019-05-02T11:51:25.638Z,1.10
2019-05-02T11:53:29.418Z,1.75
2019-05-02T11:55:28.983Z,1.40
2019-05-02T11:57:28.524Z,1.53
2019-05-02T11:59:28.064Z,1.85
2019-05-02T12:01:35.330Z,1.98
2019-05-02T12:03:28.107Z,2.09
2019-05-02T12:05:26.621Z,1.62
2019-05-02T12:07:25.826Z,2.64
2019-05-02T12:09:25.817Z,2.26
2019-05-02T12:11:25.678Z,1.87
2019-05-02T12:13:25.539Z,3.47
2019-05-02T12:15:25.772Z,2.12
2019-05-02T12:17:25.797Z,2.51
2019-05-02T12:19:25.583Z,2.90
2019-05-02T12:21:25.686Z,3.19
2019-05-02T12:23:25.752Z,1.62
2019-05-02T12:25:25.533Z,1.39
2019-05-02T12:27:25.549Z,1.89
2019-05-02T12:29:25.719Z,1.81
2019-05-02T12:31:25.649Z,2.77
2019-05-02T12:33:25.690Z,1.90
2019-05-02T12:35:25.794Z,1.94
2019-05-02T12:37:25.909Z,1.74
2019-05-02T12:39:25.918Z,0.77
2019-05-02T12:41:26.041Z,1.49
2019-05-02T12:43:25.948Z,1.11
2019-05-02T12:45:25.853Z,1.62
2019-05-02T12:47:25.769Z,1.61
2019-05-02T12:49:27.834Z,0.87
2019-05-02T12:51:25.582Z,1.49
2019-05-02T12:53:25.589Z,1.42
2019-05-02T12:55:25.804Z,1.46
2019-05-02T12:57:25.827Z,0.95
2019-05-02T12:59:25.572Z,1.05
2019-05-02T13:01:25.624Z,0.88
2019-05-02T13:03:25.780Z,1.30
2019-05-02T13:05:25.877Z,0.63
2019-05-02T13:07:25.893Z,0.47
2019-05-02T13:09:25.696Z,1.85
2019-05-02T13:11:25.801Z,1.65
2019-05-02T13:13:25.609Z,2.49
2019-05-02T13:15:25.644Z,3.71
2019-05-02T13:17:29.194Z,1.87
2019-05-02T13:19:37.107Z,2.43
2019-05-02T13:21:38.760Z,2.08
2019-05-02T13:23:27.368Z,2.13
2019-05-02T13:25:27.276Z,2.24
2019-05-02T13:27:25.553Z,1.37
2019-05-02T13:29:25.741Z,1.41
2019-05-02T13:31:25.613Z,1.80
2019-05-02T13:33:27.390Z,1.17
2019-05-02T13:35:25.641Z,2.90
2019-05-02T13:37:25.870Z,1.23
2019-05-02T13:39:25.872Z,2.07
2019-05-02T13:41:25.756Z,2.56
2019-05-02T13:43:26.001Z,2.30
2019-05-02T13:45:26.207Z,2.11
2019-05-02T13:47:26.366Z,1.98
2019-05-02T13:49:25.836Z,2.46
2019-05-02T13:51:25.628Z,2.64
2019-05-02T13:53:25.784Z,1.74
2019-05-02T13:55:25.654Z,2.18
2019-05-02T13:57:25.841Z,2.88
2019-05-02T13:59:25.659Z,3.34
2019-05-02T14:01:25.788Z,3.50
2019-05-02T14:03:25.700Z,2.76
2019-05-02T14:05:26.239Z,2.36
2019-05-02T14:07:26.341Z,2.90
2019-05-02T14:09:25.735Z,0.99
2019-05-02T14:11:25.984Z,1.92
2019-05-02T14:13:26.153Z,2.38
2019-05-02T14:15:26.389Z,2.57
2019-05-02T14:17:26.356Z,1.97
2019-05-02T14:19:26.417Z,2.31
2019-05-02T14:21:26.426Z,3.11
2019-05-02T14:23:26.448Z,2.59
2019-05-02T14:25:26.468Z,1.91
2019-05-02T14:27:26.466Z,2.79
2019-05-02T14:29:26.475Z,2.02
2019-05-02T14:31:26.287Z,1.62
2019-05-02T14:33:25.790Z,1.27
2019-05-02T14:35:28.247Z,1.78
2019-05-02T14:37:26.059Z,1.97
2019-05-02T14:39:26.264Z,0.77
2019-05-02T14:41:30.138Z,1.54
2019-05-02T14:43:26.109Z,1.13
2019-05-02T14:45:30.345Z,1.87
2019-05-02T14:47:26.372Z,1.46
2019-05-02T14:49:26.284Z,0.29
2019-05-02T14:51:27.850Z,1.58
2019-05-02T14:53:26.362Z,2.09
2019-05-02T14:55:29.007Z,1.79
2019-05-02T14:57:27.279Z,2.11
2019-05-02T14:59:28.762Z,2.03
2019-05-02T15:01:26.373Z,2.42
2019-05-02T15:03:28.393Z,1.06
2019-05-02T15:05:29.505Z,0.69
2019-05-02T15:07:26.764Z,1.65
2019-05-02T15:09:26.991Z,1.62
2019-05-02T15:11:30.903Z,3.13
2019-05-02T15:13:26.329Z,2.73
2019-05-02T15:15:27.973Z,2.55
2019-05-02T15:17:27.981Z,2.40
2019-05-02T15:19:26.233Z,1.23
2019-05-02T15:21:26.391Z,1.36
2019-05-02T15:23:26.453Z,1.95
2019-05-02T15:25:26.297Z,1.93
2019-05-02T15:27:38.784Z,1.53
2019-05-02T15:29:27.166Z,1.60
2019-05-02T15:31:28.028Z,1.06
2019-05-02T15:33:26.218Z,2.28
2019-05-02T15:35:27.033Z,2.06
2019-05-02T15:37:26.370Z,1.23
2019-05-02T15:41:26.214Z,1.89
2019-05-02T15:43:26.398Z,1.27
2019-05-02T15:45:26.235Z,1.04
2019-05-02T15:47:26.355Z,2.14
2019-05-02T15:49:26.329Z,1.06
2019-05-02T15:51:26.366Z,2.90
2019-05-02T15:53:26.394Z,2.83
2019-05-02T15:55:26.203Z,0.94
2019-05-02T15:57:26.690Z,1.34
2019-05-02T15:59:26.295Z,1.88
2019-05-02T16:01:26.508Z,1.53
2019-05-02T16:03:26.314Z,1.60
2019-05-02T16:05:26.530Z,0.65
2019-05-02T16:07:26.549Z,0.91
2019-05-02T16:09:26.474Z,0.73
2019-05-02T16:11:26.499Z,1.38
2019-05-02T16:13:26.239Z,1.66
2019-05-02T16:15:28.299Z,1.34
2019-05-02T16:17:26.297Z,1.99
2019-05-02T16:19:29.268Z,2.38
2019-05-02T16:21:29.894Z,2.23
2019-05-02T16:23:32.699Z,1.40
2019-05-02T16:25:26.193Z,1.14
2019-05-02T16:27:29.085Z,1.79
2019-05-02T16:29:28.419Z,2.60
2019-05-02T16:31:26.250Z,0.85
2019-05-02T16:33:26.284Z,1.50
2019-05-02T16:35:26.328Z,1.51
2019-05-02T16:37:26.318Z,1.40
2019-05-02T16:39:26.533Z,1.59
2019-05-02T16:41:26.545Z,1.82
2019-05-02T16:43:26.460Z,2.39
2019-05-02T16:45:26.678Z,1.78
2019-05-02T16:47:26.418Z,1.92
2019-05-02T16:49:26.394Z,0.65
2019-05-02T16:51:30.731Z,1.15
2019-05-02T16:53:26.517Z,0.99
2019-05-02T16:55:26.868Z,0.75
2019-05-02T16:57:26.454Z,2.16
2019-05-02T16:59:26.473Z,0.96
2019-05-02T17:01:27.439Z,1.98
2019-05-02T17:03:26.688Z,0.82
2019-05-02T17:05:26.585Z,1.57
2019-05-02T17:07:26.345Z,1.70
2019-05-02T17:09:28.826Z,2.24
2019-05-02T17:11:34.187Z,1.45
2019-05-02T17:13:27.404Z,1.46
2019-05-02T17:15:31.439Z,1.31
2019-05-02T17:17:30.797Z,1.04
2019-05-02T17:19:31.407Z,2.04
2019-05-02T17:21:26.851Z,1.82
2019-05-02T17:23:26.493Z,0.64
2019-05-02T17:25:26.499Z,0.76
2019-05-02T17:27:26.285Z,1.56
2019-05-02T17:29:26.527Z,1.64
2019-05-02T17:31:26.332Z,0.52
2019-05-02T17:33:26.651Z,1.72
2019-05-02T17:35:26.560Z,1.55
2019-05-02T17:37:26.555Z,1.35
2019-05-02T17:39:26.400Z,1.09
2019-05-02T17:41:26.345Z,1.25
2019-05-02T17:43:26.375Z,0.87
2019-05-02T17:45:26.620Z,0.31
2019-05-02T17:47:26.533Z,0.60
2019-05-02T17:49:30.831Z,1.09
2019-05-02T17:51:28.383Z,0.59
2019-05-02T17:53:26.551Z,0.61
2019-05-02T17:55:26.360Z,0.90
2019-05-02T17:57:28.533Z,1.18
2019-05-02T17:59:28.239Z,1.46
2019-05-02T18:01:30.584Z,1.32
2019-05-02T18:03:31.105Z,1.72
2019-05-02T18:05:31.288Z,1.42
2019-05-02T18:07:31.874Z,0.90
2019-05-02T18:09:31.685Z,2.05
2019-05-02T18:11:29.564Z,2.01
2019-05-02T18:13:29.091Z,1.03
2019-05-02T18:15:29.879Z,1.56
2019-05-02T18:17:27.825Z,1.36
2019-05-02T18:19:26.612Z,1.56
2019-05-02T18:21:28.715Z,1.00
2019-05-02T18:23:27.609Z,1.37
2019-05-02T18:25:26.496Z,0.65
2019-05-02T18:27:26.476Z,1.69
2019-05-02T18:29:26.636Z,1.48
2019-05-02T18:31:26.474Z,0.91
2019-05-02T18:33:26.546Z,1.05
2019-05-02T18:35:26.387Z,0.53
2019-05-02T18:37:26.516Z,1.05
2019-05-02T18:39:26.408Z,1.64
2019-05-02T18:41:26.643Z,2.42
2019-05-02T18:43:26.565Z,0.89
2019-05-02T18:45:28.512Z,1.65
2019-05-02T18:47:28.094Z,0.57
2019-05-02T18:49:26.494Z,1.34
2019-05-02T18:51:26.292Z,0.93
2019-05-02T18:53:27.196Z,1.91
2019-05-02T18:55:26.223Z,1.54
2019-05-02T18:57:26.532Z,0.66
2019-05-02T18:59:27.275Z,0.56
2019-05-02T19:01:26.562Z,1.47
2019-05-02T19:03:26.462Z,0.67
2019-05-02T19:05:26.708Z,0.86
2019-05-02T19:07:32.952Z,1.13
2019-05-02T19:09:30.052Z,0.37
2019-05-02T19:11:31.031Z,1.41
2019-05-02T19:13:29.673Z,1.92
2019-05-02T19:15:26.432Z,1.90
2019-05-02T19:17:26.654Z,2.19
2019-05-02T19:19:27.448Z,2.32
2019-05-02T19:21:31.264Z,2.14
2019-05-02T19:23:26.496Z,2.16
2019-05-02T19:25:26.602Z,2.43
2019-05-02T19:27:26.839Z,2.00
2019-05-02T19:29:26.634Z,1.72
2019-05-02T19:31:26.392Z,2.79
2019-05-02T19:33:26.656Z,4.40
2019-05-02T19:35:26.506Z,2.25
2019-05-02T19:37:26.329Z,2.17
2019-05-02T19:39:26.582Z,2.19
2019-05-02T19:41:26.394Z,2.70
2019-05-02T19:43:26.368Z,2.22
2019-05-02T19:45:27.818Z,3.23
2019-05-02T19:47:26.368Z,1.66
2019-05-02T19:49:26.846Z,2.69
2019-05-02T19:51:28.173Z,1.81
2019-05-02T19:53:26.671Z,2.64
2019-05-02T19:55:27.475Z,2.40
2019-05-02T19:57:26.692Z,1.17
2019-05-02T19:59:28.279Z,2.56
2019-05-02T20:01:26.698Z,2.47
2019-05-02T20:03:26.722Z,1.98
2019-05-02T20:05:26.648Z,1.85
2019-05-02T20:07:26.443Z,3.42
2019-05-02T20:09:26.565Z,1.94
2019-05-02T20:11:28.003Z,1.09
2019-05-02T20:13:28.525Z,2.57
2019-05-02T20:15:27.375Z,2.35
2019-05-02T20:17:26.358Z,2.26
2019-05-02T20:19:27.119Z,2.48
2019-05-02T20:21:27.935Z,1.95
2019-05-02T20:23:31.696Z,1.09
2019-05-02T20:25:29.894Z,2.31
2019-05-02T20:27:28.500Z,2.08
2019-05-02T20:29:26.202Z,2.87
2019-05-02T20:31:26.683Z,1.98
2019-05-02T20:33:26.498Z,1.78
2019-05-02T20:35:26.302Z,2.29
2019-05-02T20:37:26.316Z,1.76
2019-05-02T20:39:26.740Z,1.87
2019-05-02T20:41:26.280Z,1.26
2019-05-02T20:43:26.035Z,2.49
2019-05-02T20:45:26.046Z,2.12
2019-05-02T20:47:26.209Z,2.03
2019-05-02T20:49:26.290Z,2.23
2019-05-02T20:51:26.312Z,2.06
2019-05-02T20:53:31.033Z,2.59
2019-05-02T20:55:26.038Z,2.29
2019-05-02T20:57:26.762Z,1.59
2019-05-02T20:59:26.342Z,2.20
2019-05-02T21:01:26.458Z,1.13
2019-05-02T21:03:26.200Z,1.64
2019-05-02T21:05:26.058Z,2.49
2019-05-02T21:07:26.083Z,2.31
2019-05-02T21:09:26.289Z,2.63
2019-05-02T21:11:26.100Z,2.18
2019-05-02T21:13:26.261Z,2.34
2019-05-02T21:15:26.255Z,2.17
2019-05-02T21:17:26.141Z,1.15
2019-05-02T21:19:26.051Z,1.75
2019-05-02T21:21:26.261Z,1.01
2019-05-02T21:23:26.493Z,2.35
2019-05-02T21:25:26.297Z,1.34
2019-05-02T21:27:26.040Z,1.74
2019-05-02T21:29:26.040Z,1.02
2019-05-02T21:31:26.118Z,0.48
2019-05-02T21:33:26.134Z,0.90
2019-05-02T21:35:26.345Z,1.96
2019-05-02T21:37:26.111Z,0.76
2019-05-02T21:39:26.163Z,1.68
2019-05-02T21:41:26.159Z,0.71
2019-05-02T21:43:26.138Z,0.46
2019-05-02T21:45:26.332Z,0.68
2019-05-02T21:47:26.423Z,1.17
2019-05-02T21:49:26.135Z,1.93
2019-05-02T21:51:26.440Z,1.34
2019-05-02T21:53:26.466Z,1.42
2019-05-02T21:55:26.479Z,1.43
2019-05-02T21:57:26.477Z,1.67
2019-05-02T21:59:26.386Z,0.90
2019-05-02T22:01:26.329Z,1.52
2019-05-02T22:03:26.203Z,0.55
2019-05-02T22:05:26.183Z,0.99
2019-05-02T22:07:26.431Z,0.71
2019-05-02T22:09:26.246Z,0.32
2019-05-02T22:11:26.253Z,0.14
2019-05-02T22:13:26.266Z,1.13
2019-05-02T22:15:26.237Z,0.20
2019-05-02T22:17:26.492Z,1.32
2019-05-02T22:19:26.494Z,0.06
2019-05-02T22:21:26.517Z,0.79
2019-05-02T22:23:26.531Z,1.69
2019-05-02T22:25:26.335Z,1.08
2019-05-02T22:27:26.461Z,0.86
2019-05-02T22:29:26.259Z,1.20
2019-05-02T22:31:26.406Z,1.33
2019-05-02T22:33:26.294Z,1.07
2019-05-02T22:35:26.194Z,1.07
2019-05-02T22:37:26.412Z,0.70
2019-05-02T22:39:26.135Z,0.72
2019-05-02T22:41:26.644Z,1.38
2019-05-02T22:43:26.241Z,1.13
2019-05-02T22:45:26.863Z,0.48
2019-05-02T22:47:26.817Z,0.93
2019-05-02T22:49:26.345Z,0.53
2019-05-02T22:51:26.175Z,0.95
2019-05-02T22:53:26.477Z,0.92
2019-05-02T22:55:26.518Z,0.51
2019-05-02T22:57:26.531Z,0.75
2019-05-02T22:59:26.351Z,0.69
2019-05-02T23:01:26.497Z,1.35
2019-05-02T23:03:26.371Z,1.05
2019-05-02T23:05:26.268Z,1.01
2019-05-02T23:07:26.489Z,0.98
2019-05-02T23:09:26.502Z,1.32
2019-05-02T23:11:26.510Z,0.85
2019-05-02T23:13:26.291Z,0.77
2019-05-02T23:15:26.534Z,0.29
2019-05-02T23:17:26.337Z,1.18
2019-05-02T23:19:26.551Z,1.48
2019-05-02T23:21:26.299Z,0.71
2019-05-02T23:23:26.784Z,0.58
2019-05-02T23:25:29.070Z,0.31
2019-05-02T23:27:26.397Z,1.19
2019-05-02T23:29:26.407Z,1.38
2019-05-02T23:31:26.420Z,0.64
2019-05-02T23:33:26.427Z,0.31
2019-05-02T23:35:26.551Z,0.97
2019-05-02T23:37:26.451Z,1.07
2019-05-02T23:39:26.486Z,1.06
2019-05-02T23:41:26.494Z,2.03
2019-05-02T23:43:26.505Z,1.58
2019-05-02T23:45:26.507Z,1.66
2019-05-02T23:47:26.423Z,0.97
2019-05-02T23:49:26.919Z,1.75
2019-05-02T23:51:26.339Z,0.99
2019-05-02T23:53:26.430Z,1.01
2019-05-02T23:55:26.386Z,0.92
2019-05-02T23:57:26.462Z,1.37
2019-05-02T23:59:26.365Z,0.39
